CheckWX is a tool to help pilots better visualize weather data.  It is not intended as a substitute for an official pre-flight weather briefing.

15:20:51 UTC

KCKM METAR
Fletcher Field Airport
Clarksdale, Mississippi, USA
Current

6 mins ago

KCKM 101515Z AUTO 00000KT 10SM 28/27 A3001 RMK A01
Observed
Jul-10 @ 15:15 UTC
Visibility
10 SM
Cloud Levels
Temperature
28°C / 82°F
Dewpoint
27°C / 81°F
Humidity
94%
Altimeter
30.01" Hg
Pressure
1016.22 hPa
Previous

26 mins ago

KCKM 101455Z AUTO 00000KT 10SM 27/27 A3001 RMK A01
Observed
Jul-10 @ 14:55 UTC
Visibility
10 SM
Cloud Levels
Temperature
27°C / 81°F
Dewpoint
27°C / 81°F
Humidity
100%
Altimeter
30.01" Hg
Pressure
1016.22 hPa
Previous

46 mins ago

KCKM 101435Z AUTO 00000KT 10SM 27/27 A3000 RMK A01
Observed
Jul-10 @ 14:35 UTC
Visibility
10 SM
Cloud Levels
Temperature
27°C / 81°F
Dewpoint
27°C / 81°F
Humidity
100%
Altimeter
30" Hg
Pressure
1015.92 hPa